Terminal Aerodrome Forecast
Issued by NWS

Home | Current Version | Previous Version | Text Only | Print | Product List | Glossary On
Versions: 1 2 3 4 5 6 7 8 9 10 11 12 13 14 15 16 17 18 19 20 21 22 23 24 25 26 27 28 29 30 31 32 33 34 35 36 37 38 39 40 41 42 43 44 45 46 47
000
FTUS43 KGLD 191136 CCA
TAFMCK
TAF COR
KMCK 191136Z 1912/2012 VRB04KT 1SM BR SKC
      TEMPO 1912/1913 4SM BR SCT005
     FM191300 21006KT P6SM SKC
     FM191600 22016G26KT P6SM FEW050
     FM200000 19010KT P6SM SKC
     FM200600 24010KT P6SM FEW050 SCT120=

USA.gov is the U.S. government's official web portal to all federal, state and local government web resources and services.